createdAt,value
2022-08-11T00:01:32.285Z,21.20
2022-08-11T00:04:23.257Z,21.20
2022-08-11T00:07:13.644Z,21.20
2022-08-11T00:10:03.097Z,21.20
2022-08-11T00:12:57.289Z,21.20
2022-08-11T00:15:48.739Z,21.20
2022-08-11T00:18:41.553Z,21.20
2022-08-11T00:22:02.805Z,21.20
2022-08-11T00:24:54.933Z,21.20
2022-08-11T00:27:47.230Z,21.20
2022-08-11T00:30:42.189Z,21.20
2022-08-11T00:33:44.436Z,21.20
2022-08-11T00:36:43.908Z,21.20
2022-08-11T00:39:35.003Z,21.20
2022-08-11T00:42:45.842Z,21.20
2022-08-11T00:45:40.986Z,21.20
2022-08-11T00:48:37.443Z,21.20
2022-08-11T00:51:59.689Z,21.20
2022-08-11T00:55:17.567Z,21.20
2022-08-11T00:58:48.336Z,21.20
2022-08-11T01:01:57.265Z,21.20
2022-08-11T01:05:29.978Z,21.20
2022-08-11T01:09:08.320Z,21.20
2022-08-11T01:12:29.066Z,21.20
2022-08-11T01:16:00.571Z,21.20
2022-08-11T01:19:19.003Z,21.20
2022-08-11T01:22:30.466Z,21.20
2022-08-11T01:25:57.456Z,21.20
2022-08-11T01:29:23.253Z,21.20
2022-08-11T01:32:40.389Z,21.20
2022-08-11T01:36:08.259Z,21.20
2022-08-11T01:39:35.190Z,21.20
2022-08-11T01:43:23.553Z,21.20
2022-08-11T01:46:17.876Z,21.20
2022-08-11T01:50:06.693Z,21.20
2022-08-11T01:52:49.310Z,21.20
2022-08-11T01:55:44.894Z,21.20
2022-08-11T01:58:46.884Z,21.20
2022-08-11T02:01:46.392Z,21.20
2022-08-11T02:04:39.697Z,21.20
2022-08-11T02:07:35.395Z,21.20
2022-08-11T02:10:50.635Z,21.20
2022-08-11T02:13:48.831Z,21.20
2022-08-11T02:16:49.890Z,21.20
2022-08-11T02:20:08.059Z,21.30
2022-08-11T02:23:23.966Z,21.20
2022-08-11T02:26:32.359Z,21.20
2022-08-11T02:29:26.061Z,21.20
2022-08-11T02:32:39.969Z,21.20
2022-08-11T02:35:43.012Z,21.20
2022-08-11T02:38:43.528Z,21.20
2022-08-11T02:41:58.498Z,21.20
2022-08-11T02:44:58.787Z,21.20
2022-08-11T02:48:14.893Z,21.20
2022-08-11T02:51:22.278Z,21.20
2022-08-11T02:54:17.606Z,21.20
2022-08-11T02:57:14.345Z,21.20
2022-08-11T03:00:08.427Z,21.20
2022-08-11T03:03:16.472Z,21.20
2022-08-11T03:06:11.002Z,21.20
2022-08-11T03:09:07.696Z,21.20
2022-08-11T03:12:20.858Z,21.30
2022-08-11T03:15:35.310Z,21.30
2022-08-11T03:18:30.093Z,21.30
2022-08-11T03:21:24.404Z,21.30
2022-08-11T03:24:43.921Z,21.30
2022-08-11T03:27:44.051Z,21.30
2022-08-11T03:30:48.272Z,21.30
2022-08-11T03:34:06.672Z,21.30
2022-08-11T03:37:34.721Z,21.30
2022-08-11T03:41:50.458Z,21.30
2022-08-11T03:44:39.453Z,21.30
2022-08-11T03:47:52.622Z,21.30
2022-08-11T03:50:59.516Z,21.30
2022-08-11T03:54:11.284Z,21.30
2022-08-11T03:57:36.950Z,21.30
2022-08-11T04:01:06.982Z,21.30
2022-08-11T04:04:33.289Z,21.30
2022-08-11T04:07:46.298Z,21.30
2022-08-11T04:11:10.327Z,21.30
2022-08-11T04:14:51.030Z,21.30
2022-08-11T04:18:15.967Z,21.40
2022-08-11T04:21:22.678Z,21.40
2022-08-11T04:24:50.177Z,21.40
2022-08-11T04:28:28.474Z,21.30
2022-08-11T04:31:50.452Z,21.00
2022-08-11T04:34:59.531Z,20.60
2022-08-11T04:38:17.733Z,20.40
2022-08-11T04:42:04.857Z,20.20
2022-08-11T04:45:53.435Z,20.10
2022-08-11T04:49:34.046Z,20.00
2022-08-11T04:52:56.176Z,19.80
2022-08-11T04:56:44.511Z,19.70
2022-08-11T05:00:21.407Z,19.70
2022-08-11T05:03:42.697Z,19.70
2022-08-11T05:07:19.038Z,19.60
2022-08-11T05:10:24.370Z,19.60
2022-08-11T05:13:41.416Z,19.60
2022-08-11T05:16:51.558Z,19.50
2022-08-11T05:19:57.747Z,19.50
2022-08-11T05:23:08.860Z,19.60
2022-08-11T05:26:47.683Z,19.60
2022-08-11T05:30:01.280Z,19.70
2022-08-11T05:33:18.156Z,19.60
2022-08-11T05:36:13.712Z,19.60
2022-08-11T05:39:33.662Z,19.50
2022-08-11T05:42:44.238Z,19.50
2022-08-11T05:46:02.503Z,19.40
2022-08-11T05:49:11.173Z,19.40
2022-08-11T05:52:18.577Z,19.40
2022-08-11T05:55:25.952Z,19.30
2022-08-11T05:58:15.426Z,19.30
2022-08-11T06:01:06.095Z,19.30
2022-08-11T06:04:14.208Z,19.40
2022-08-11T06:07:06.427Z,19.40
2022-08-11T06:09:55.625Z,19.40
2022-08-11T06:12:45.156Z,19.50
2022-08-11T06:15:35.385Z,19.60
2022-08-11T06:18:26.774Z,19.70
2022-08-11T06:21:16.301Z,19.80
2022-08-11T06:24:12.347Z,19.80
2022-08-11T06:27:12.330Z,19.80
2022-08-11T06:30:01.983Z,19.90
2022-08-11T06:32:55.627Z,20.00
2022-08-11T06:35:57.196Z,20.00
2022-08-11T06:38:59.292Z,20.00
2022-08-11T06:41:53.310Z,20.10
2022-08-11T06:44:44.342Z,20.00
2022-08-11T06:47:33.653Z,20.00
2022-08-11T06:50:41.615Z,20.00
2022-08-11T06:53:36.046Z,19.90
2022-08-11T06:56:44.231Z,19.90
2022-08-11T06:59:51.622Z,19.80
2022-08-11T07:02:49.666Z,19.70
2022-08-11T07:05:46.011Z,19.70
2022-08-11T07:09:16.526Z,19.60
2022-08-11T07:12:34.139Z,19.60
2022-08-11T07:16:10.763Z,19.50
2022-08-11T07:19:07.682Z,19.50
2022-08-11T07:22:15.893Z,19.50
2022-08-11T07:25:30.043Z,19.50
2022-08-11T07:28:42.041Z,19.50
2022-08-11T07:31:42.224Z,19.50
2022-08-11T07:34:36.857Z,19.50
2022-08-11T07:37:27.417Z,19.50
2022-08-11T07:40:23.298Z,19.50
2022-08-11T07:43:14.366Z,19.50
2022-08-11T07:46:23.221Z,19.50
2022-08-11T07:49:30.399Z,19.50
2022-08-11T07:52:29.019Z,19.50
2022-08-11T07:55:19.881Z,19.50
2022-08-11T07:58:29.968Z,19.50
2022-08-11T08:01:39.611Z,19.50
2022-08-11T08:04:47.351Z,19.50
2022-08-11T08:07:56.015Z,19.50
2022-08-11T08:11:02.935Z,19.50
2022-08-11T08:14:09.705Z,19.50
2022-08-11T08:17:16.505Z,19.50
2022-08-11T08:20:07.500Z,19.50
2022-08-11T08:22:58.327Z,19.50
2022-08-11T08:25:49.097Z,19.40
2022-08-11T08:28:37.697Z,19.40
2022-08-11T08:31:26.268Z,19.40
2022-08-11T08:34:15.747Z,19.40
2022-08-11T08:37:15.819Z,19.50
2022-08-11T08:40:15.439Z,19.50
2022-08-11T08:43:10.672Z,19.50
2022-08-11T08:46:00.272Z,19.60
2022-08-11T08:48:52.166Z,19.60
2022-08-11T08:52:01.248Z,19.70
2022-08-11T08:54:57.135Z,19.70
2022-08-11T08:57:46.562Z,19.70
2022-08-11T09:00:45.643Z,19.70
2022-08-11T09:04:04.807Z,19.70
2022-08-11T09:06:50.054Z,19.70
2022-08-11T09:09:44.753Z,19.70
2022-08-11T09:12:38.411Z,19.70
2022-08-11T09:15:28.498Z,19.70
2022-08-11T09:18:19.751Z,19.70
2022-08-11T09:21:09.064Z,19.70
2022-08-11T09:24:25.782Z,19.70
2022-08-11T09:27:15.804Z,19.70
2022-08-11T09:30:06.696Z,19.70
2022-08-11T09:33:00.558Z,19.70
2022-08-11T09:35:52.339Z,19.80
2022-08-11T09:38:59.718Z,19.80
2022-08-11T09:42:01.131Z,19.90
2022-08-11T09:44:57.699Z,19.80
2022-08-11T09:47:47.076Z,19.80
2022-08-11T09:50:36.373Z,19.80
2022-08-11T09:53:35.728Z,19.70
2022-08-11T09:56:44.373Z,19.80
2022-08-11T09:59:33.323Z,19.80
2022-08-11T10:02:28.294Z,19.80
2022-08-11T10:05:38.036Z,19.90
2022-08-11T10:08:31.590Z,19.90
2022-08-11T10:11:24.601Z,20.00
2022-08-11T10:14:35.059Z,20.10
2022-08-11T10:17:24.762Z,20.10
2022-08-11T10:20:13.895Z,20.10
2022-08-11T10:23:21.518Z,20.10
2022-08-11T10:26:28.393Z,20.10
2022-08-11T10:29:44.382Z,20.20
2022-08-11T10:32:58.873Z,20.20
2022-08-11T10:35:49.644Z,20.20
2022-08-11T10:38:38.874Z,20.20
2022-08-11T10:42:06.467Z,20.20
2022-08-11T10:44:59.426Z,20.30
2022-08-11T10:47:49.584Z,20.30
2022-08-11T10:50:56.560Z,20.40
2022-08-11T10:54:05.762Z,20.40
2022-08-11T10:57:14.437Z,20.30
2022-08-11T11:00:04.691Z,20.30
2022-08-11T11:03:22.038Z,20.20
2022-08-11T11:06:13.289Z,20.20
2022-08-11T11:09:20.851Z,20.20
2022-08-11T11:12:30.238Z,20.30
2022-08-11T11:15:38.276Z,20.30
2022-08-11T11:18:29.829Z,20.30
2022-08-11T11:21:20.517Z,20.40
2022-08-11T11:24:17.734Z,20.40
2022-08-11T11:27:16.080Z,20.40
2022-08-11T11:30:08.434Z,20.50
2022-08-11T11:33:06.224Z,20.50
2022-08-11T11:36:08.918Z,20.60
2022-08-11T11:38:58.535Z,20.60
2022-08-11T11:41:47.525Z,20.70
2022-08-11T11:44:39.364Z,20.70
2022-08-11T11:47:28.666Z,20.70
2022-08-11T11:50:18.259Z,20.70
2022-08-11T11:53:09.420Z,20.80
2022-08-11T11:55:59.299Z,20.90
2022-08-11T11:59:07.107Z,20.90
2022-08-11T12:02:11.945Z,20.80
2022-08-11T12:05:02.747Z,20.80
2022-08-11T12:08:12.871Z,20.80
2022-08-11T12:11:20.198Z,20.90
2022-08-11T12:14:10.926Z,20.90
2022-08-11T12:17:01.503Z,21.00
2022-08-11T12:19:51.067Z,21.10
2022-08-11T12:22:58.791Z,21.10
2022-08-11T12:26:25.876Z,21.20
2022-08-11T12:29:14.447Z,21.20
2022-08-11T12:32:09.456Z,21.20
2022-08-11T12:34:58.743Z,21.20
2022-08-11T12:37:51.965Z,21.20
2022-08-11T12:44:36.632Z,21.10
2022-08-11T12:48:09.289Z,21.10
2022-08-11T12:51:17.038Z,21.10
2022-08-11T12:54:12.816Z,21.10
2022-08-11T12:57:24.026Z,21.10
2022-08-11T13:00:44.305Z,21.10
2022-08-11T13:03:56.583Z,21.10
2022-08-11T13:06:46.026Z,21.10
2022-08-11T13:09:34.575Z,21.00
2022-08-11T13:28:21.472Z,20.90
2022-08-11T13:31:15.214Z,21.30
2022-08-11T13:34:08.585Z,21.30
2022-08-11T14:44:39.047Z,19.80
2022-08-11T14:47:29.002Z,20.30
2022-08-11T14:50:23.294Z,20.30
2022-08-11T14:53:18.807Z,20.30
2022-08-11T14:56:25.506Z,20.30
2022-08-11T14:59:15.891Z,20.30
2022-08-11T15:02:23.385Z,20.40
2022-08-11T15:05:12.374Z,20.50
2022-08-11T15:08:01.315Z,20.50
2022-08-11T15:10:51.004Z,20.60
2022-08-11T15:13:40.658Z,20.60
2022-08-11T15:16:49.775Z,20.70
2022-08-11T15:20:03.372Z,20.70
2022-08-11T15:23:24.546Z,20.70
2022-08-11T15:26:17.227Z,20.70
2022-08-11T15:29:23.695Z,20.70
2022-08-11T15:32:32.688Z,20.70
2022-08-11T15:35:39.873Z,20.70
2022-08-11T15:38:36.253Z,20.70
2022-08-11T15:41:54.627Z,20.70
2022-08-11T15:45:10.242Z,20.60
2022-08-11T15:48:06.076Z,20.60
2022-08-11T15:50:58.530Z,20.60
2022-08-11T15:53:56.732Z,20.70
2022-08-11T15:56:48.808Z,20.60
2022-08-11T16:00:00.364Z,20.70
2022-08-11T16:03:12.487Z,20.70
2022-08-11T16:06:06.220Z,20.70
2022-08-11T16:08:56.899Z,20.70
2022-08-11T16:11:47.771Z,20.70
2022-08-11T16:14:59.448Z,20.60
2022-08-11T16:17:52.947Z,20.70
2022-08-11T16:20:41.707Z,20.70
2022-08-11T16:23:31.876Z,20.70
2022-08-11T16:27:09.026Z,20.80
2022-08-11T16:29:33.965Z,20.80
2022-08-11T16:32:24.560Z,20.90
2022-08-11T16:35:35.052Z,20.90
2022-08-11T16:38:36.819Z,20.90
2022-08-11T16:41:52.349Z,20.90
2022-08-11T16:44:58.640Z,20.90
2022-08-11T16:48:02.774Z,20.90
2022-08-11T16:51:00.959Z,20.80
2022-08-11T16:54:05.212Z,20.80
2022-08-11T16:56:57.439Z,20.80
2022-08-11T16:59:45.682Z,20.80
2022-08-11T17:02:54.453Z,20.80
2022-08-11T17:06:07.566Z,20.80
2022-08-11T17:09:13.600Z,20.80
2022-08-11T17:12:25.051Z,20.90
2022-08-11T17:15:35.970Z,20.90
2022-08-11T17:18:44.842Z,21.00
2022-08-11T17:21:58.563Z,21.20
2022-08-11T17:24:47.964Z,21.20
2022-08-11T17:27:39.992Z,21.30
2022-08-11T17:30:49.944Z,21.30
2022-08-11T17:33:56.652Z,21.30
2022-08-11T17:36:46.299Z,21.40
2022-08-11T17:39:35.860Z,21.50
2022-08-11T17:42:45.055Z,21.40
2022-08-11T17:45:52.586Z,21.50
2022-08-11T17:48:47.302Z,21.50
2022-08-11T17:51:55.991Z,21.50
2022-08-11T17:55:02.850Z,21.50
2022-08-11T17:58:14.255Z,21.50
2022-08-11T18:01:09.429Z,21.50
2022-08-11T18:03:58.856Z,21.50
2022-08-11T18:06:49.629Z,21.50
2022-08-11T18:09:55.741Z,21.50
2022-08-11T18:13:04.170Z,21.50
2022-08-11T18:16:10.239Z,21.50
2022-08-11T18:19:18.452Z,21.50
2022-08-11T18:22:27.929Z,21.50
2022-08-11T18:25:35.999Z,21.50
2022-08-11T18:28:45.323Z,21.50
2022-08-11T18:31:55.578Z,21.50
2022-08-11T18:35:03.401Z,21.50
2022-08-11T18:38:11.232Z,21.50
2022-08-11T18:41:18.069Z,21.50
2022-08-11T18:44:29.037Z,21.50
2022-08-11T18:47:37.457Z,21.50
2022-08-11T18:50:53.558Z,21.50
2022-08-11T18:54:18.808Z,21.50
2022-08-11T18:57:26.738Z,21.40
2022-08-11T19:00:33.395Z,21.40
2022-08-11T19:03:48.359Z,21.40
2022-08-11T19:06:56.850Z,21.40
2022-08-11T19:10:05.158Z,21.40
2022-08-11T19:13:15.565Z,21.40
2022-08-11T19:16:23.830Z,21.40
2022-08-11T19:19:32.423Z,21.40
2022-08-11T19:22:41.219Z,21.40
2022-08-11T19:25:49.323Z,21.40
2022-08-11T19:28:58.671Z,21.40
2022-08-11T19:32:05.428Z,21.40
2022-08-11T19:35:12.464Z,21.30
2022-08-11T19:38:21.136Z,21.30
2022-08-11T19:41:52.115Z,21.40
2022-08-11T19:44:54.767Z,21.40
2022-08-11T19:48:30.198Z,21.30
2022-08-11T19:51:30.324Z,21.30
2022-08-11T19:54:39.244Z,21.30
2022-08-11T19:57:45.500Z,21.40
2022-08-11T20:00:52.577Z,21.40
2022-08-11T20:03:58.725Z,21.40
2022-08-11T20:07:04.869Z,21.40
2022-08-11T20:10:13.000Z,21.40
2022-08-11T20:13:21.440Z,21.30
2022-08-11T20:16:29.585Z,21.30
2022-08-11T20:19:55.691Z,21.30
2022-08-11T20:23:04.035Z,21.30
2022-08-11T20:26:31.201Z,21.30
2022-08-11T20:29:44.657Z,21.30
2022-08-11T20:32:54.540Z,21.40
2022-08-11T20:36:00.496Z,21.30
2022-08-11T20:39:09.283Z,21.30
2022-08-11T20:42:17.211Z,21.40
2022-08-11T20:45:27.314Z,21.40
2022-08-11T20:48:33.832Z,21.40
2022-08-11T20:51:40.627Z,21.40
2022-08-11T20:54:46.776Z,21.40
2022-08-11T20:58:03.949Z,21.40
2022-08-11T21:01:20.571Z,21.40
2022-08-11T21:04:54.325Z,21.40
2022-08-11T21:08:05.296Z,21.40
2022-08-11T21:11:12.926Z,21.40
2022-08-11T21:14:23.427Z,21.40
2022-08-11T21:17:33.653Z,21.40
2022-08-11T21:20:41.502Z,21.40
2022-08-11T21:23:50.780Z,21.40
2022-08-11T21:27:03.462Z,21.40
2022-08-11T21:30:12.561Z,21.40
2022-08-11T21:33:18.641Z,21.40
2022-08-11T21:36:27.644Z,21.30
2022-08-11T21:39:37.819Z,21.40
2022-08-11T21:42:46.790Z,21.40
2022-08-11T21:45:57.582Z,21.40
2022-08-11T21:49:04.006Z,21.30
2022-08-11T21:52:10.185Z,21.40
2022-08-11T21:55:17.924Z,21.30
2022-08-11T21:58:24.622Z,21.30
2022-08-11T22:01:32.483Z,21.10
2022-08-11T22:04:40.830Z,21.20
2022-08-11T22:07:48.054Z,21.10
2022-08-11T22:10:53.717Z,21.10
2022-08-11T22:14:06.449Z,21.10
2022-08-11T22:17:15.366Z,21.10
2022-08-11T22:20:23.441Z,21.20
2022-08-11T22:23:35.238Z,21.20
2022-08-11T22:26:47.396Z,21.20
2022-08-11T22:29:53.807Z,21.20
2022-08-11T22:33:02.395Z,21.20
2022-08-11T22:36:10.061Z,21.20
2022-08-11T22:39:19.112Z,21.20
2022-08-11T22:42:33.485Z,21.20
2022-08-11T22:45:41.046Z,21.20
2022-08-11T22:48:49.657Z,21.20
2022-08-11T22:51:57.683Z,21.20
2022-08-11T22:55:04.646Z,21.20
2022-08-11T22:58:12.447Z,21.30
2022-08-11T23:01:18.183Z,21.30
2022-08-11T23:04:27.125Z,21.20
2022-08-11T23:07:50.504Z,21.20
2022-08-11T23:10:59.266Z,21.20
2022-08-11T23:14:05.509Z,21.20
2022-08-11T23:17:12.864Z,21.20
2022-08-11T23:20:27.126Z,21.20
2022-08-11T23:23:35.364Z,21.20
2022-08-11T23:26:43.088Z,21.20
2022-08-11T23:29:53.930Z,21.20
2022-08-11T23:33:00.747Z,21.20
2022-08-11T23:36:11.138Z,21.20
2022-08-11T23:39:37.202Z,21.20
2022-08-11T23:42:43.854Z,21.20
2022-08-11T23:45:52.123Z,21.20
2022-08-11T23:48:58.970Z,21.20
2022-08-11T23:52:08.369Z,21.20
2022-08-11T23:55:14.923Z,21.20
2022-08-11T23:58:20.828Z,21.20
